Date,TemperatureHighF,TemperatureAvgF,TemperatureLowF,DewpointHighF,DewpointAvgF,DewpointLowF,HumidityHigh,HumidityAvg,HumidityLow,PressureMaxIn,PressureMinIn,WindSpeedMaxMPH,WindSpeedAvgMPH,GustSpeedMaxMPH,PrecipitationSumIn
2013-8-1,89.4,80.1,68.9,66.6,63.2,60.7,78,58,41,30.03,29.96,4,1,9,0.00
2013-8-2,104.7,80.8,63.1,72.0,64.6,60.0,94,62,28,30.05,29.93,4,0,8,0.00
2013-8-3,99.0,84.1,64.8,72.8,65.5,58.4,90,57,28,29.96,29.90,3,0,5,0.00
2013-8-4,95.7,85.4,73.8,67.9,64.9,62.5,73,52,37,30.05,29.94,4,1,8,0.00
2013-8-5,95.2,84.3,70.3,71.6,67.0,62.5,83,58,39,30.09,29.95,4,1,9,0.00
2013-8-6,98.1,84.2,68.4,71.4,66.9,63.3,87,59,36,30.00,29.88,4,0,7,0.00
2013-8-7,102.4,85.3,69.4,73.2,66.0,62.6,83,56,31,29.93,29.87,4,1,8,0.00
2013-8-8,101.7,86.9,70.7,72.4,65.7,62.0,76,53,30,29.94,29.87,4,1,12,0.00
2013-8-9,105.1,87.6,70.7,71.7,66.1,63.6,82,52,28,29.91,29.75,8,1,11,0.00
2013-8-10,76.6,72.1,66.7,69.7,64.6,60.0,99,78,65,29.92,29.80,8,3,16,0.01
2013-8-11,88.2,76.1,64.9,61.0,57.0,49.8,78,54,30,29.96,29.90,4,1,8,0.00
2013-8-12,91.0,77.8,62.4,66.4,59.7,55.3,87,57,30,30.01,29.90,4,1,9,0.00
2013-8-13,94.3,76.2,62.4,66.7,61.5,56.8,96,63,36,29.99,29.89,5,1,10,0.01
2013-8-14,77.4,70.3,63.1,65.4,57.5,53.4,95,65,47,30.11,29.96,3,1,7,0.01
2013-8-15,79.9,68.1,54.0,61.6,55.3,49.0,96,66,44,30.16,30.08,3,0,6,0.00
2013-8-16,83.8,71.3,56.3,55.9,52.6,49.2,79,54,36,30.15,30.03,4,1,6,0.00
2013-8-17,86.2,72.0,54.1,60.5,53.5,50.4,87,56,32,30.06,29.96,4,1,7,0.00
2013-8-18,95.5,76.2,57.0,61.5,55.3,50.4,81,53,27,30.03,29.93,4,1,8,0.00
2013-8-19,93.7,78.6,61.3,62.2,58.1,53.9,81,53,30,29.98,29.85,5,1,9,0.00
2013-8-20,81.1,73.2,67.8,68.2,65.0,58.6,87,76,54,30.07,29.90,6,2,12,0.00
2013-8-21,80.6,71.6,64.8,66.8,63.1,59.1,89,75,61,30.11,30.06,3,1,8,0.01
2013-8-22,83.1,71.0,57.2,63.9,60.0,55.8,96,70,51,30.09,29.97,4,1,8,0.00
2013-8-23,84.2,72.9,61.3,61.3,57.8,53.9,77,61,42,30.03,29.91,4,1,6,0.00
2013-8-24,82.4,71.7,64.0,60.7,57.2,55.0,73,61,45,29.97,29.84,4,1,8,0.00
2013-8-25,84.2,71.8,64.0,66.7,59.4,54.7,98,67,43,29.86,29.77,3,1,6,0.01
2013-8-26,72.1,66.8,62.2,69.0,64.7,61.4,99,93,80,29.88,29.81,3,1,6,0.11
2013-8-27,81.9,68.9,61.7,65.6,62.8,61.4,99,82,57,29.91,29.82,4,1,7,0.00
2013-8-28,84.0,66.9,60.1,67.6,62.5,59.8,99,87,58,29.86,29.80,4,1,8,0.34
2013-8-29,86.2,66.9,60.3,70.4,62.5,59.5,99,88,45,30.05,29.87,5,1,9,0.25
2013-8-30,84.6,67.0,56.7,63.9,60.4,56.4,99,82,47,30.06,30.01,2,0,6,0.00
2013-8-31,86.2,66.8,52.0,63.4,57.0,51.7,99,75,37,30.06,29.99,4,0,6,0.00